createdAt,value
2019-04-27T00:01:12.133Z,99035.71
2019-04-27T00:03:24.357Z,99032.08
2019-04-27T00:05:39.994Z,99031.12
2019-04-27T00:07:51.461Z,99031.48
2019-04-27T00:09:58.366Z,99023.84
2019-04-27T00:12:06.773Z,99021.69
2019-04-27T00:14:14.964Z,99024.77
2019-04-27T00:16:26.438Z,99030.66
2019-04-27T00:18:35.740Z,99024.27
2019-04-27T00:20:48.115Z,99024.21
2019-04-27T00:23:03.384Z,99037.78
2019-04-27T00:25:10.652Z,99045.70
2019-04-27T00:27:17.582Z,99026.66
2019-04-27T00:29:25.952Z,99028.07
2019-04-27T00:31:33.694Z,99035.13
2019-04-27T00:33:40.684Z,99033.59
2019-04-27T00:35:49.040Z,99018.20
2019-04-27T00:38:00.333Z,99029.09
2019-04-27T00:40:09.734Z,99031.89
2019-04-27T00:42:17.630Z,99031.11
2019-04-27T00:44:24.372Z,99028.06
2019-04-27T00:46:32.907Z,99022.78
2019-04-27T00:48:39.587Z,99021.49
2019-04-27T00:50:46.258Z,99024.20
2019-04-27T00:52:53.272Z,99014.50
2019-04-27T00:55:00.146Z,99016.80
2019-04-27T00:57:14.482Z,99018.72
2019-04-27T00:59:38.012Z,99017.94
2019-04-27T01:01:46.644Z,99014.08
2019-04-27T01:03:55.213Z,99015.54
2019-04-27T01:06:03.268Z,99012.13
2019-04-27T01:08:10.083Z,99014.88
2019-04-27T01:10:16.834Z,99021.54
2019-04-27T01:12:23.782Z,99007.80
2019-04-27T01:14:30.522Z,99003.48
2019-04-27T01:16:37.276Z,99003.78
2019-04-27T01:18:44.003Z,99005.31
2019-04-27T01:20:50.786Z,99006.32
2019-04-27T01:22:59.341Z,99006.45
2019-04-27T01:25:08.811Z,99008.78
2019-04-27T01:27:29.583Z,99000.92
2019-04-27T01:29:39.265Z,99001.92
2019-04-27T01:31:46.488Z,99000.45
2019-04-27T01:33:53.254Z,99002.45
2019-04-27T01:35:59.921Z,98995.50
2019-04-27T01:38:06.687Z,98998.16
2019-04-27T01:40:13.677Z,98995.53
2019-04-27T01:42:20.431Z,98996.53
2019-04-27T01:44:27.200Z,98993.15
2019-04-27T01:46:33.967Z,98993.73
2019-04-27T01:48:40.691Z,99000.95
2019-04-27T01:50:49.112Z,99001.64
2019-04-27T01:52:55.908Z,99011.04
2019-04-27T01:55:02.721Z,99013.73
2019-04-27T01:57:10.325Z,99009.86
2019-04-27T01:59:17.260Z,99005.10
2019-04-27T02:01:42.064Z,99006.09
2019-04-27T02:04:09.248Z,99004.48
2019-04-27T02:06:16.214Z,99017.52
2019-04-27T02:08:22.883Z,99038.45
2019-04-27T02:10:29.651Z,99019.30
2019-04-27T02:12:36.348Z,99015.63
2019-04-27T02:14:43.112Z,99022.55
2019-04-27T02:16:49.866Z,99022.02
2019-04-27T02:18:58.460Z,99020.19
2019-04-27T02:21:05.884Z,99023.27
2019-04-27T02:23:12.571Z,99023.84
2019-04-27T02:25:21.147Z,99024.86
2019-04-27T02:27:30.200Z,99027.59
2019-04-27T02:29:39.032Z,99025.46
2019-04-27T02:31:58.007Z,99017.17
2019-04-27T02:34:04.443Z,99016.45
2019-04-27T02:36:14.926Z,99013.93
2019-04-27T02:38:20.271Z,99017.18
2019-04-27T02:40:51.467Z,99016.84
2019-04-27T02:42:59.799Z,99010.22
2019-04-27T02:45:09.643Z,99007.63
2019-04-27T02:47:14.893Z,99008.09
2019-04-27T02:49:21.430Z,99006.41
2019-04-27T02:51:30.093Z,99002.11
2019-04-27T02:53:54.639Z,98999.97
2019-04-27T02:56:01.383Z,99001.34
2019-04-27T02:58:12.308Z,99000.56
2019-04-27T03:00:17.228Z,99003.19
2019-04-27T03:02:29.987Z,99000.01
2019-04-27T03:04:39.671Z,98999.97
2019-04-27T03:06:45.766Z,99002.59
2019-04-27T03:08:54.190Z,99003.89
2019-04-27T03:11:01.295Z,98996.30
2019-04-27T03:13:15.467Z,98992.80
2019-04-27T03:15:26.666Z,98997.25
2019-04-27T03:17:35.001Z,98992.88
2019-04-27T03:19:43.345Z,98992.00
2019-04-27T03:22:00.935Z,98994.69
2019-04-27T03:24:09.827Z,98993.85
2019-04-27T03:26:23.325Z,98997.41
2019-04-27T03:28:31.061Z,98999.62
2019-04-27T03:30:42.129Z,99001.72
2019-04-27T03:32:46.320Z,98994.06
2019-04-27T03:34:53.067Z,98999.66
2019-04-27T03:36:59.866Z,99005.33
2019-04-27T03:39:10.183Z,99006.83
2019-04-27T03:41:19.106Z,99006.92
2019-04-27T03:43:26.941Z,99001.27
2019-04-27T03:45:33.591Z,99005.75
2019-04-27T03:47:41.023Z,99005.41
2019-04-27T03:49:50.611Z,99000.98
2019-04-27T03:52:09.651Z,99010.27
2019-04-27T03:54:19.331Z,99012.08
2019-04-27T03:56:30.590Z,99018.31
2019-04-27T03:58:55.089Z,99018.72
2019-04-27T04:01:01.834Z,99018.20
2019-04-27T04:03:10.606Z,99019.05
2019-04-27T04:05:16.889Z,99012.67
2019-04-27T04:07:24.170Z,99017.50
2019-04-27T04:09:40.978Z,99013.95
2019-04-27T04:11:49.282Z,99019.20
2019-04-27T04:14:00.417Z,99013.25
2019-04-27T04:16:25.170Z,99015.33
2019-04-27T04:18:33.476Z,99010.76
2019-04-27T04:20:40.595Z,99012.51
2019-04-27T04:22:47.472Z,99020.47
2019-04-27T04:24:54.157Z,99015.48
2019-04-27T04:27:00.858Z,99015.66
2019-04-27T04:29:10.329Z,99012.57
2019-04-27T04:31:16.511Z,99015.99
2019-04-27T04:33:23.266Z,99017.89
2019-04-27T04:35:32.468Z,99014.37
2019-04-27T04:37:39.446Z,99009.30
2019-04-27T04:39:49.862Z,99018.94
2019-04-27T04:42:11.930Z,99005.98
2019-04-27T04:44:36.354Z,99009.78
2019-04-27T04:46:50.645Z,99014.61
2019-04-27T04:48:57.420Z,99016.30
2019-04-27T04:51:04.182Z,99011.33
2019-04-27T04:53:12.177Z,99007.94
2019-04-27T04:55:20.347Z,99009.20
2019-04-27T04:57:29.808Z,99007.11
2019-04-27T04:59:35.896Z,99004.88
2019-04-27T05:01:42.664Z,99003.16
2019-04-27T05:03:49.327Z,99007.51
2019-04-27T05:05:56.059Z,99005.14
2019-04-27T05:08:02.880Z,99012.31
2019-04-27T05:10:09.831Z,99012.58
2019-04-27T05:12:16.511Z,99006.94
2019-04-27T05:14:23.297Z,99018.20
2019-04-27T05:16:32.702Z,99014.09
2019-04-27T05:18:39.394Z,99012.83
2019-04-27T05:20:48.652Z,99019.81
2019-04-27T05:22:55.493Z,99013.19
2019-04-27T05:25:02.162Z,99017.44
2019-04-27T05:27:09.311Z,99019.16
2019-04-27T05:29:16.279Z,99022.17
2019-04-27T05:31:22.948Z,99020.09
2019-04-27T05:33:29.714Z,99020.12
2019-04-27T05:35:36.390Z,99025.41
2019-04-27T05:37:44.487Z,99031.34
2019-04-27T05:39:51.334Z,99039.16
2019-04-27T05:41:59.687Z,99042.02
2019-04-27T05:44:07.669Z,99032.43
2019-04-27T05:46:39.664Z,99042.25
2019-04-27T05:48:46.616Z,99043.61
2019-04-27T05:50:58.880Z,99037.58
2019-04-27T05:53:01.683Z,99047.12
2019-04-27T05:55:10.511Z,99043.05
2019-04-27T05:57:19.483Z,99044.58
2019-04-27T05:59:26.270Z,99046.66
2019-04-27T06:01:32.996Z,99057.00
2019-04-27T06:03:39.825Z,99059.20
2019-04-27T06:05:46.545Z,99056.98
2019-04-27T06:07:53.284Z,99053.10
2019-04-27T06:10:00.115Z,99054.77
2019-04-27T06:12:06.916Z,99054.28
2019-04-27T06:14:13.655Z,99059.50
2019-04-27T06:16:20.341Z,99064.47
2019-04-27T06:18:27.214Z,99063.63
2019-04-27T06:20:34.071Z,99071.11
2019-04-27T06:22:40.746Z,99068.59
2019-04-27T06:24:52.742Z,99079.81
2019-04-27T06:26:57.343Z,99078.92
2019-04-27T06:29:04.124Z,99077.63
2019-04-27T06:31:10.823Z,99082.44
2019-04-27T06:33:27.991Z,99087.88
2019-04-27T06:35:25.067Z,99078.66
2019-04-27T06:37:31.630Z,99083.20
2019-04-27T06:39:38.729Z,99081.29
2019-04-27T06:41:47.011Z,99081.00
2019-04-27T06:43:53.708Z,99074.00
2019-04-27T06:46:00.384Z,99076.08
2019-04-27T06:48:07.041Z,99080.28
2019-04-27T06:50:13.825Z,99078.14
2019-04-27T06:52:20.485Z,99079.94
2019-04-27T06:54:28.973Z,99073.83
2019-04-27T06:56:35.820Z,99077.22
2019-04-27T06:58:42.500Z,99085.82
2019-04-27T07:00:49.691Z,99084.70
2019-04-27T07:02:56.625Z,99087.48
2019-04-27T07:05:04.737Z,99083.71
2019-04-27T07:07:11.422Z,99090.84
2019-04-27T07:09:19.543Z,99097.72
2019-04-27T07:11:25.566Z,99102.02
2019-04-27T07:13:32.274Z,99099.32
2019-04-27T07:15:39.105Z,99097.45
2019-04-27T07:17:48.712Z,99099.33
2019-04-27T07:19:59.237Z,99101.32
2019-04-27T07:22:06.076Z,99104.30
2019-04-27T07:24:13.842Z,99111.42
2019-04-27T07:26:21.265Z,99126.30
2019-04-27T07:28:28.645Z,99130.59
2019-04-27T07:30:35.695Z,99131.78
2019-04-27T07:32:42.391Z,99126.26
2019-04-27T07:34:49.779Z,99130.61
2019-04-27T07:36:56.662Z,99136.02
2019-04-27T07:39:06.739Z,99143.60
2019-04-27T07:41:13.496Z,99147.77
2019-04-27T07:43:21.784Z,99146.56
2019-04-27T07:45:29.521Z,99143.76
2019-04-27T07:47:36.157Z,99139.87
2019-04-27T07:49:42.822Z,99131.95
2019-04-27T07:51:50.506Z,99139.66
2019-04-27T07:53:58.779Z,99140.94
2019-04-27T07:56:05.841Z,99147.08
2019-04-27T07:58:12.514Z,99143.35
2019-04-27T08:00:19.495Z,99149.81
2019-04-27T08:02:29.127Z,99149.56
2019-04-27T08:04:35.985Z,99148.84
2019-04-27T08:06:42.762Z,99156.20
2019-04-27T08:08:49.433Z,99156.61
2019-04-27T08:10:56.170Z,99156.52
2019-04-27T08:13:04.136Z,99151.83
2019-04-27T08:15:11.856Z,99159.12
2019-04-27T08:17:19.133Z,99155.64
2019-04-27T08:19:26.194Z,99158.14
2019-04-27T08:21:43.056Z,99160.91
2019-04-27T08:23:41.399Z,99155.98
2019-04-27T08:25:49.654Z,99160.83
2019-04-27T08:28:06.787Z,99155.16
2019-04-27T08:30:30.280Z,99156.39
2019-04-27T08:32:44.398Z,99166.03
2019-04-27T08:34:51.151Z,99159.41
2019-04-27T08:36:58.438Z,99162.66
2019-04-27T08:39:08.924Z,99164.38
2019-04-27T08:41:16.264Z,99162.02
2019-04-27T08:43:22.929Z,99157.81
2019-04-27T08:45:29.698Z,99165.50
2019-04-27T08:47:36.370Z,99159.49
2019-04-27T08:49:43.958Z,99164.70
2019-04-27T08:51:57.263Z,99162.20
2019-04-27T08:53:59.205Z,99169.41
2019-04-27T08:56:05.896Z,99175.66
2019-04-27T08:58:12.690Z,99174.73
2019-04-27T09:00:20.934Z,99178.80
2019-04-27T09:02:39.795Z,99182.11
2019-04-27T09:04:39.446Z,99187.53
2019-04-27T09:06:49.361Z,99187.55
2019-04-27T09:08:59.277Z,99189.56
2019-04-27T09:11:10.670Z,99183.13
2019-04-27T09:13:24.739Z,99191.56
2019-04-27T09:15:33.025Z,99189.16
2019-04-27T09:17:41.007Z,99200.28
2019-04-27T09:19:50.514Z,99201.39
2019-04-27T09:22:13.624Z,99201.78
2019-04-27T09:24:13.393Z,99199.09
2019-04-27T09:26:20.066Z,99199.38
2019-04-27T09:28:26.909Z,99190.33
2019-04-27T09:30:34.701Z,99203.41
2019-04-27T09:32:41.547Z,99198.19
2019-04-27T09:34:48.911Z,99198.06
2019-04-27T09:36:57.021Z,99211.34
2019-04-27T09:39:10.379Z,99208.32
2019-04-27T09:41:17.121Z,99209.19
2019-04-27T09:43:28.831Z,99206.77
2019-04-27T09:45:37.154Z,99203.73
2019-04-27T09:47:46.802Z,99207.87
2019-04-27T09:49:53.877Z,99203.49
2019-04-27T09:52:00.646Z,99205.83
2019-04-27T09:54:07.398Z,99198.83
2019-04-27T09:56:14.185Z,99210.71
2019-04-27T09:58:20.948Z,99206.22
2019-04-27T10:00:27.954Z,99206.66
2019-04-27T10:02:36.664Z,99202.22
2019-04-27T10:04:43.558Z,99202.09
2019-04-27T10:06:56.995Z,99212.15
2019-04-27T10:09:08.947Z,99205.47
2019-04-27T10:11:16.254Z,99206.69
2019-04-27T10:13:23.066Z,99207.70
2019-04-27T10:15:29.831Z,99200.67
2019-04-27T10:17:40.045Z,99198.97
2019-04-27T10:19:47.020Z,99197.67
2019-04-27T10:21:53.734Z,99208.03
2019-04-27T10:24:00.413Z,99208.52
2019-04-27T10:26:08.183Z,99205.00
2019-04-27T10:28:14.951Z,99206.05
2019-04-27T10:30:21.691Z,99197.52
2019-04-27T10:32:28.383Z,99197.06
2019-04-27T10:34:35.244Z,99194.73
2019-04-27T10:36:42.098Z,99202.56
2019-04-27T10:38:49.313Z,99199.92
2019-04-27T10:40:56.218Z,99197.50
2019-04-27T10:43:18.860Z,99197.81
2019-04-27T10:45:25.513Z,99194.67
2019-04-27T10:47:32.328Z,99203.73
2019-04-27T10:49:38.998Z,99202.59
2019-04-27T10:51:46.942Z,99208.77
2019-04-27T10:53:55.760Z,99205.41
2019-04-27T10:56:02.512Z,99215.84
2019-04-27T10:58:10.594Z,99205.30
2019-04-27T11:00:19.224Z,99200.20
2019-04-27T11:02:25.983Z,99207.25
2019-04-27T11:04:35.996Z,99204.75
2019-04-27T11:06:47.284Z,99208.14
2019-04-27T11:08:55.942Z,99210.25
2019-04-27T11:11:08.822Z,99202.48
2019-04-27T11:13:17.056Z,99218.52
2019-04-27T11:15:26.258Z,99216.78
2019-04-27T11:17:32.867Z,99225.25
2019-04-27T11:19:40.960Z,99221.75
2019-04-27T11:21:47.718Z,99226.02
2019-04-27T11:23:55.975Z,99233.56
2019-04-27T11:26:07.583Z,99238.50
2019-04-27T11:28:15.848Z,99243.84
2019-04-27T11:30:23.020Z,99246.46
2019-04-27T11:32:29.814Z,99247.75
2019-04-27T11:34:55.853Z,99252.81
2019-04-27T11:37:05.557Z,99261.53
2019-04-27T11:39:19.698Z,99256.31
2019-04-27T11:41:26.260Z,99257.89
2019-04-27T11:43:33.188Z,99249.17
2019-04-27T11:45:45.627Z,99256.02
2019-04-27T11:47:52.238Z,99259.33
2019-04-27T11:49:58.920Z,99269.13
2019-04-27T11:52:05.868Z,99261.06
2019-04-27T11:54:12.644Z,99268.27
2019-04-27T11:56:19.413Z,99266.27
2019-04-27T11:58:26.590Z,99267.55
2019-04-27T12:00:33.541Z,99264.88
2019-04-27T12:02:41.409Z,99278.70
2019-04-27T12:04:48.175Z,99265.33
2019-04-27T12:06:56.486Z,99265.86
2019-04-27T12:09:05.099Z,99273.25
2019-04-27T12:11:11.979Z,99266.44
2019-04-27T12:13:18.645Z,99274.59
2019-04-27T12:15:26.265Z,99272.62
2019-04-27T12:17:35.879Z,99280.31
2019-04-27T12:19:42.811Z,99277.28
2019-04-27T12:21:49.495Z,99277.72
2019-04-27T12:23:56.776Z,99280.27
2019-04-27T12:26:05.799Z,99280.44
2019-04-27T12:28:20.851Z,99269.56
2019-04-27T12:30:33.245Z,99270.65
2019-04-27T12:32:39.910Z,99270.09
2019-04-27T12:34:46.597Z,99277.07
2019-04-27T12:36:53.532Z,99275.92
2019-04-27T12:39:00.276Z,99278.03
2019-04-27T12:41:08.450Z,99272.41
2019-04-27T12:43:15.221Z,99279.14
2019-04-27T12:45:22.090Z,99287.33
2019-04-27T12:47:30.734Z,99284.37
2019-04-27T12:49:37.844Z,99284.20
2019-04-27T12:51:45.660Z,99287.00
2019-04-27T12:53:59.850Z,99290.46
2019-04-27T12:56:06.640Z,99287.25
2019-04-27T12:58:16.415Z,99296.42
2019-04-27T13:00:34.178Z,99290.23
2019-04-27T13:02:41.497Z,99293.91
2019-04-27T13:04:48.166Z,99295.62
2019-04-27T13:06:55.875Z,99292.77
2019-04-27T13:09:02.895Z,99296.52
2019-04-27T13:11:11.086Z,99299.02
2019-04-27T13:13:17.750Z,99299.33
2019-04-27T13:15:24.456Z,99298.51
2019-04-27T13:17:31.230Z,99296.51
2019-04-27T13:19:37.994Z,99292.66
2019-04-27T13:21:46.805Z,99301.00
2019-04-27T13:24:02.023Z,99300.34
2019-04-27T13:26:01.509Z,99303.02
2019-04-27T13:28:08.307Z,99304.88
2019-04-27T13:30:16.419Z,99303.89
2019-04-27T13:32:23.229Z,99305.51
2019-04-27T13:34:29.930Z,99302.70
2019-04-27T13:36:36.890Z,99294.27
2019-04-27T13:38:43.794Z,99299.61
2019-04-27T13:41:07.326Z,99298.84
2019-04-27T13:43:16.687Z,99302.34
2019-04-27T13:45:26.636Z,99295.80
2019-04-27T13:47:51.896Z,99282.06
2019-04-27T13:50:00.211Z,99289.38
2019-04-27T13:52:08.525Z,99294.09
2019-04-27T13:54:23.818Z,99291.21
2019-04-27T13:56:23.775Z,99291.16
2019-04-27T13:58:30.511Z,99287.20
2019-04-27T14:00:37.893Z,99291.75
2019-04-27T14:02:44.673Z,99282.88
2019-04-27T14:04:51.406Z,99281.13
2019-04-27T14:06:59.030Z,99274.86
2019-04-27T14:09:09.230Z,99279.06
2019-04-27T14:11:18.348Z,99278.83
2019-04-27T14:13:25.198Z,99278.55
2019-04-27T14:15:31.961Z,99269.36
2019-04-27T14:17:39.170Z,99271.27
2019-04-27T14:19:48.103Z,99273.48
2019-04-27T14:21:54.718Z,99268.36
2019-04-27T14:24:01.388Z,99270.72
2019-04-27T14:26:10.632Z,99277.13
2019-04-27T14:28:18.308Z,99283.16
2019-04-27T14:30:25.215Z,99283.47
2019-04-27T14:32:31.931Z,99279.38
2019-04-27T14:34:38.655Z,99287.38
2019-04-27T14:36:46.326Z,99282.22
2019-04-27T14:38:53.121Z,99283.95
2019-04-27T14:40:59.850Z,99287.53
2019-04-27T14:43:08.373Z,99292.11
2019-04-27T14:45:15.318Z,99288.52
2019-04-27T14:47:22.477Z,99284.95
2019-04-27T14:49:30.677Z,99281.32
2019-04-27T14:51:39.914Z,99280.35
2019-04-27T14:53:48.863Z,99274.73
2019-04-27T14:55:54.913Z,99274.69
2019-04-27T14:58:01.471Z,99275.27
2019-04-27T15:00:10.390Z,99267.11
2019-04-27T15:02:16.178Z,99263.43
2019-04-27T15:04:22.751Z,99263.06
2019-04-27T15:06:30.211Z,99263.61
2019-04-27T15:08:38.356Z,99263.05
2019-04-27T15:10:46.487Z,99258.52
2019-04-27T15:12:55.447Z,99259.16
2019-04-27T15:15:01.859Z,99266.33
2019-04-27T15:17:10.448Z,99271.33
2019-04-27T15:19:19.371Z,99268.97
2019-04-27T15:21:26.123Z,99269.59
2019-04-27T15:23:32.962Z,99272.84
2019-04-27T15:25:45.611Z,99273.84
2019-04-27T15:27:52.572Z,99268.16
2019-04-27T15:30:03.122Z,99280.67
2019-04-27T15:32:12.401Z,99284.22
2019-04-27T15:34:18.913Z,99283.05
2019-04-27T15:36:43.486Z,99293.89
2019-04-27T15:38:53.754Z,99293.23
2019-04-27T15:41:05.993Z,99291.88
2019-04-27T15:43:14.353Z,99296.75
2019-04-27T15:45:24.330Z,99291.11
2019-04-27T15:47:29.534Z,99293.08
2019-04-27T15:49:36.297Z,99288.73
2019-04-27T15:51:42.968Z,99281.75
2019-04-27T15:53:50.779Z,99280.74
2019-04-27T15:56:00.863Z,99285.75
2019-04-27T15:58:08.197Z,99276.81
2019-04-27T16:00:21.034Z,99280.81
2019-04-27T16:02:28.878Z,99288.31
2019-04-27T16:04:38.121Z,99291.56
2019-04-27T16:06:47.550Z,99295.07
2019-04-27T16:08:52.906Z,99295.14
2019-04-27T16:10:59.647Z,99291.15
2019-04-27T16:13:07.439Z,99292.13
2019-04-27T16:15:17.521Z,99291.22
2019-04-27T16:17:22.922Z,99292.55
2019-04-27T16:19:29.450Z,99294.50
2019-04-27T16:21:41.590Z,99295.34
2019-04-27T16:23:44.598Z,99294.61
2019-04-27T16:25:51.570Z,99296.39
2019-04-27T16:27:58.400Z,99300.35
2019-04-27T16:30:11.498Z,99296.76
2019-04-27T16:32:17.462Z,99301.43
2019-04-27T16:34:24.256Z,99298.34
2019-04-27T16:36:31.133Z,99296.89
2019-04-27T16:39:03.872Z,99298.34
2019-04-27T16:41:12.239Z,99310.48
2019-04-27T16:43:18.908Z,99302.63
2019-04-27T16:45:27.182Z,99304.44
2019-04-27T16:47:34.837Z,99308.97
2019-04-27T16:49:44.236Z,99305.98
2019-04-27T16:51:49.888Z,99312.03
2019-04-27T16:54:00.365Z,99308.97
2019-04-27T16:56:14.548Z,99304.13
2019-04-27T16:58:20.726Z,99305.56
2019-04-27T17:00:29.578Z,99302.42
2019-04-27T17:02:35.520Z,99299.78
2019-04-27T17:04:44.628Z,99302.11
2019-04-27T17:06:52.009Z,99295.89
2019-04-27T17:09:05.643Z,99297.67
2019-04-27T17:12:41.267Z,99289.23
2019-04-27T17:13:18.613Z,99288.81
2019-04-27T17:15:46.092Z,99289.45
2019-04-27T17:17:53.861Z,99290.90
2019-04-27T17:20:02.230Z,99289.14
2019-04-27T17:22:10.368Z,99284.67
2019-04-27T17:24:42.078Z,99285.61
2019-04-27T17:26:43.751Z,99293.95
2019-04-27T17:28:56.449Z,99289.17
2019-04-27T17:31:03.260Z,99295.91
2019-04-27T17:33:15.259Z,99301.98
2019-04-27T17:35:23.035Z,99298.39
2019-04-27T17:37:33.651Z,99297.16
2019-04-27T17:39:38.749Z,99296.70
2019-04-27T17:41:49.157Z,99302.02
2019-04-27T17:43:53.963Z,99299.42
2019-04-27T17:46:00.767Z,99299.93
2019-04-27T17:48:10.885Z,99308.90
2019-04-27T17:50:18.389Z,99307.63
2019-04-27T17:52:24.362Z,99318.34
2019-04-27T17:54:31.039Z,99318.88
2019-04-27T17:56:48.138Z,99318.93
2019-04-27T17:58:48.610Z,99321.98
2019-04-27T18:00:55.020Z,99326.00
2019-04-27T18:03:01.756Z,99326.91
2019-04-27T18:05:13.172Z,99326.45
2019-04-27T18:07:19.084Z,99327.89
2019-04-27T18:09:25.863Z,99327.20
2019-04-27T18:11:37.092Z,99331.25
2019-04-27T18:13:42.304Z,99344.98
2019-04-27T18:15:52.469Z,99336.50
2019-04-27T18:18:02.762Z,99343.70
2019-04-27T18:20:18.408Z,99350.35
2019-04-27T18:22:25.214Z,99358.30
2019-04-27T18:24:33.549Z,99365.39
2019-04-27T18:26:49.565Z,99371.19
2019-04-27T18:28:53.869Z,99381.27
2019-04-27T18:30:59.918Z,99384.42
2019-04-27T18:33:07.991Z,99386.20
2019-04-27T18:35:19.922Z,99392.83
2019-04-27T18:37:25.275Z,99394.09
2019-04-27T18:39:31.973Z,99399.47
2019-04-27T18:41:44.487Z,99400.83
2019-04-27T18:43:52.218Z,99399.56
2019-04-27T18:45:58.649Z,99393.83
2019-04-27T18:48:13.461Z,99400.04
2019-04-27T18:50:29.105Z,99396.91
2019-04-27T18:52:49.995Z,99403.98
2019-04-27T18:54:56.158Z,99397.33
2019-04-27T18:57:04.951Z,99406.19
2019-04-27T18:59:11.823Z,99405.23
2019-04-27T19:01:18.820Z,99407.45
2019-04-27T19:03:29.703Z,99406.99
2019-04-27T19:05:40.218Z,99415.74
2019-04-27T19:07:45.026Z,99416.66
2019-04-27T19:09:53.191Z,99413.66
2019-04-27T19:11:59.878Z,99411.91
2019-04-27T19:14:08.237Z,99411.12
2019-04-27T19:16:16.435Z,99410.28
2019-04-27T19:18:23.230Z,99412.19
2019-04-27T19:20:29.987Z,99408.72
2019-04-27T19:22:38.468Z,99404.84
2019-04-27T19:24:46.824Z,99405.83
2019-04-27T19:26:58.780Z,99401.43
2019-04-27T19:29:08.588Z,99399.20
2019-04-27T19:31:21.419Z,99398.03
2019-04-27T19:33:30.883Z,99398.08
2019-04-27T19:35:39.057Z,99397.20
2019-04-27T19:37:48.682Z,99393.66
2019-04-27T19:39:58.765Z,99396.77
2019-04-27T19:42:07.152Z,99398.64
2019-04-27T19:44:15.366Z,99394.56
2019-04-27T19:46:23.682Z,99389.31
2019-04-27T19:48:30.493Z,99385.23
2019-04-27T19:50:39.141Z,99382.98
2019-04-27T19:52:50.302Z,99379.88
2019-04-27T19:54:58.523Z,99372.36
2019-04-27T19:57:09.069Z,99377.71
2019-04-27T19:59:18.780Z,99374.28
2019-04-27T20:01:30.096Z,99379.16
2019-04-27T20:03:42.931Z,99375.98
2019-04-27T20:05:51.250Z,99375.98
2019-04-27T20:08:00.877Z,99379.04
2019-04-27T20:10:09.993Z,99375.10
2019-04-27T20:12:17.793Z,99369.78
2019-04-27T20:14:25.769Z,99368.44
2019-04-27T20:16:32.458Z,99365.30
2019-04-27T20:18:39.131Z,99361.31
2019-04-27T20:20:45.843Z,99357.32
2019-04-27T20:22:54.095Z,99361.27
2019-04-27T20:25:01.830Z,99348.86
2019-04-27T20:27:10.797Z,99347.96
2019-04-27T20:29:17.689Z,99348.86
2019-04-27T20:31:26.774Z,99355.52
2019-04-27T20:33:35.354Z,99354.22
2019-04-27T20:35:42.694Z,99358.22
2019-04-27T20:37:49.464Z,99356.42
2019-04-27T20:39:56.227Z,99359.09
2019-04-27T20:42:02.986Z,99355.09
2019-04-27T20:44:12.637Z,99359.06
2019-04-27T20:46:22.545Z,99363.92
2019-04-27T20:48:29.002Z,99363.52
2019-04-27T20:50:35.680Z,99367.92
2019-04-27T20:52:42.152Z,99370.17
2019-04-27T20:54:48.906Z,99366.19
2019-04-27T20:56:57.345Z,99367.11
2019-04-27T20:59:04.350Z,99363.16
2019-04-27T21:01:11.806Z,99360.92
2019-04-27T21:03:35.054Z,99363.66
2019-04-27T21:05:43.396Z,99366.31
2019-04-27T21:08:01.451Z,99364.58
2019-04-27T21:10:09.126Z,99360.61
2019-04-27T21:12:16.005Z,99358.39
2019-04-27T21:14:23.302Z,99354.86
2019-04-27T21:16:31.347Z,99357.95
2019-04-27T21:18:38.183Z,99359.33
2019-04-27T21:20:44.867Z,99358.00
2019-04-27T21:22:53.508Z,99358.43
2019-04-27T21:25:01.592Z,99353.59
2019-04-27T21:27:08.624Z,99357.57
2019-04-27T21:29:15.406Z,99361.15
2019-04-27T21:31:22.191Z,99350.63
2019-04-27T21:33:28.864Z,99343.52
2019-04-27T21:35:37.041Z,99343.46
2019-04-27T21:37:43.817Z,99348.77
2019-04-27T21:39:53.295Z,99338.20
2019-04-27T21:42:00.954Z,99341.73
2019-04-27T21:44:07.779Z,99340.00
2019-04-27T21:46:14.509Z,99336.47
2019-04-27T21:48:22.246Z,99335.62
2019-04-27T21:50:31.237Z,99329.87
2019-04-27T21:52:42.510Z,99336.47
2019-04-27T21:54:51.259Z,99334.25
2019-04-27T21:56:58.118Z,99338.20
2019-04-27T21:59:06.157Z,99343.09
2019-04-27T22:01:21.634Z,99340.45
2019-04-27T22:03:29.405Z,99340.91
2019-04-27T22:05:36.591Z,99335.16
2019-04-27T22:07:43.285Z,99338.29
2019-04-27T22:09:51.717Z,99329.92
2019-04-27T22:11:58.712Z,99329.52
2019-04-27T22:14:06.396Z,99324.70
2019-04-27T22:16:13.216Z,99331.81
2019-04-27T22:18:21.240Z,99326.03
2019-04-27T22:20:29.345Z,99330.91
2019-04-27T22:22:41.379Z,99326.94
2019-04-27T22:24:48.298Z,99324.73
2019-04-27T22:26:55.146Z,99329.04
2019-04-27T22:29:02.131Z,99331.18
2019-04-27T22:31:12.375Z,99336.45
2019-04-27T22:33:17.998Z,99324.52
2019-04-27T22:35:24.756Z,99330.19
2019-04-27T22:37:33.212Z,99331.06
2019-04-27T22:39:44.601Z,99329.31
2019-04-27T22:41:56.817Z,99327.51
2019-04-27T22:44:08.595Z,99330.24
2019-04-27T22:46:25.962Z,99327.51
2019-04-27T22:48:33.021Z,99327.53
2019-04-27T22:50:41.370Z,99319.12
2019-04-27T22:52:48.282Z,99317.84
2019-04-27T22:54:55.075Z,99323.16
2019-04-27T22:57:03.403Z,99330.69
2019-04-27T22:59:21.488Z,99335.95
2019-04-27T23:01:27.992Z,99337.78
2019-04-27T23:03:36.301Z,99344.84
2019-04-27T23:05:43.111Z,99346.66
2019-04-27T23:07:51.608Z,99342.25
2019-04-27T23:09:58.469Z,99337.82
2019-04-27T23:12:06.218Z,99328.57
2019-04-27T23:14:12.925Z,99328.57
2019-04-27T23:16:21.856Z,99325.02
2019-04-27T23:18:27.819Z,99319.77
2019-04-27T23:20:34.373Z,99318.42
2019-04-27T23:22:41.041Z,99320.22
2019-04-27T23:24:47.816Z,99322.52
2019-04-27T23:26:55.179Z,99320.81
2019-04-27T23:29:12.973Z,99321.66
2019-04-27T23:31:24.189Z,99321.64
2019-04-27T23:33:31.214Z,99320.34
2019-04-27T23:35:37.954Z,99324.36
2019-04-27T23:37:44.698Z,99319.95
2019-04-27T23:39:51.489Z,99315.99
2019-04-27T23:41:58.169Z,99315.54
2019-04-27T23:44:04.897Z,99314.66
2019-04-27T23:46:11.681Z,99312.44
2019-04-27T23:48:18.407Z,99312.45
2019-04-27T23:50:26.722Z,99311.56
2019-04-27T23:52:52.594Z,99312.84
2019-04-27T23:54:59.489Z,99308.05
2019-04-27T23:57:06.168Z,99309.48
2019-04-27T23:59:24.210Z,99315.73
